This is the latest recevied weather packets stored in our database for station/object KD9CCP. If no packets are shown the sender has not sent any weather packets the latest 10 day(s).
| Time | Temp. | Humidity | Pressure | Rain* | Wind** | Luminosity | Snow |
|---|---|---|---|---|---|---|---|
| 1777569431 | 3.89° C | 79% | 1017.6 hPa | 0 mm | - | 78 W/m² | - |
| 1777569129 | 3.89° C | 77% | 1017.4 hPa | 0 mm | - | 219 W/m² | - |
| 1777568825 | 3.33° C | 77% | 1017.4 hPa | 0 mm | - | 364 W/m² | - |
| 1777568523 | 2.78° C | 80% | 1017.4 hPa | 0 mm | - | 532 W/m² | - |
| 1777568219 | 2.22° C | 85% | 1017.7 hPa | 0 mm | - | 375 W/m² | - |
| 1777567916 | 2.22° C | 87% | 1017.6 hPa | 0 mm | - | 265 W/m² | - |
| 1777567612 | 2.78° C | 86% | 1017.7 hPa | 0 mm | - | 76 W/m² | - |
| 1777567310 | 3.33° C | 82% | 1017.8 hPa | 0 mm | - | 50 W/m² | - |
| 1777567008 | 3.33° C | 80% | 1017.6 hPa | 0 mm | - | 39 W/m² | - |
| 1777566705 | 3.89° C | 75% | 1017.6 hPa | 0 mm | - | 47 W/m² | - |
| 1777566403 | 3.89° C | 71% | 1017.6 hPa | 0 mm | - | 74 W/m² | - |
| 1777566100 | 3.89° C | 74% | 1017.5 hPa | 0 mm | - | 88 W/m² | - |
| 1777565795 | 3.89° C | 74% | 1017.5 hPa | 0 mm | - | 96 W/m² | - |
| 1777565492 | 3.89° C | 75% | 1017.3 hPa | 0 mm | - | 101 W/m² | - |
| 1777565188 | 3.89° C | 74% | 1017.6 hPa | 0 mm | - | 65 W/m² | - |
| 1777564884 | 3.89° C | 77% | 1017.5 hPa | 0 mm | - | 55 W/m² | - |
| 1777564579 | 3.89° C | 72% | 1017.6 hPa | 0 mm | - | 99 W/m² | - |
| 1777564275 | 3.89° C | 71% | 1017.6 hPa | 0 mm | - | 154 W/m² | - |
| 1777563971 | 3.89° C | 73% | 1017.4 hPa | 0 mm | - | 186 W/m² | - |
| 1777563668 | 3.33° C | 75% | 1017.6 hPa | 0 mm | - | 78 W/m² | - |
| 1777563363 | 3.33° C | 78% | 1017.6 hPa | 0 mm | - | 98 W/m² | - |
| 1777563059 | 3.89° C | 73% | 1017.6 hPa | 0 mm | - | 107 W/m² | - |
| 1777562755 | 3.33° C | 74% | 1017.8 hPa | 0 mm | - | 107 W/m² | - |
| 1777562453 | 3.33° C | 73% | 1017.9 hPa | 0 mm | - | 124 W/m² | - |
| 1777562150 | 3.33° C | 79% | 1017.6 hPa | 0 mm | - | 131 W/m² | - |
* Rain latest hour (hover to see other rain measurements)
** Current wind speed in m/s (hover to see current wind gust speed)